sensor_id;sensor_type;location;lat;lon;timestamp;P1;durP1;ratioP1;P2;durP2;ratioP2
60076;SDS011;45950;45.208;20.374;2022-11-15T00:02:03;22.67;;;12.65;;
60076;SDS011;45950;45.208;20.374;2022-11-15T00:04:30;83.07;;;36.42;;
60076;SDS011;45950;45.208;20.374;2022-11-15T00:06:56;78.50;;;39.88;;
60076;SDS011;45950;45.208;20.374;2022-11-15T00:09:23;65.75;;;36.25;;
60076;SDS011;45950;45.208;20.374;2022-11-15T00:11:50;62.80;;;32.83;;
60076;SDS011;45950;45.208;20.374;2022-11-15T00:17:05;45.90;;;25.27;;
60076;SDS011;45950;45.208;20.374;2022-11-15T00:19:32;55.25;;;29.90;;
60076;SDS011;45950;45.208;20.374;2022-11-15T00:22:00;39.63;;;22.70;;
60076;SDS011;45950;45.208;20.374;2022-11-15T00:24:26;40.90;;;21.67;;
60076;SDS011;45950;45.208;20.374;2022-11-15T00:26:53;34.28;;;19.83;;
60076;SDS011;45950;45.208;20.374;2022-11-15T00:29:19;45.42;;;24.92;;
60076;SDS011;45950;45.208;20.374;2022-11-15T00:31:46;42.78;;;22.08;;
60076;SDS011;45950;45.208;20.374;2022-11-15T00:34:14;70.18;;;36.58;;
60076;SDS011;45950;45.208;20.374;2022-11-15T00:36:41;30.95;;;17.38;;
60076;SDS011;45950;45.208;20.374;2022-11-15T00:39:07;46.83;;;25.48;;
60076;SDS011;45950;45.208;20.374;2022-11-15T00:41:34;24.90;;;14.10;;
60076;SDS011;45950;45.208;20.374;2022-11-15T00:44:14;24.67;;;13.48;;
60076;SDS011;45950;45.208;20.374;2022-11-15T00:46:40;35.78;;;20.00;;
60076;SDS011;45950;45.208;20.374;2022-11-15T00:49:07;42.08;;;23.55;;
60076;SDS011;45950;45.208;20.374;2022-11-15T00:51:43;45.08;;;24.02;;
60076;SDS011;45950;45.208;20.374;2022-11-15T00:54:10;55.47;;;30.35;;
60076;SDS011;45950;45.208;20.374;2022-11-15T00:56:36;62.15;;;32.42;;
60076;SDS011;45950;45.208;20.374;2022-11-15T00:59:19;38.10;;;21.35;;
60076;SDS011;45950;45.208;20.374;2022-11-15T01:01:46;43.30;;;23.25;;
60076;SDS011;45950;45.208;20.374;2022-11-15T01:04:12;71.68;;;36.53;;
60076;SDS011;45950;45.208;20.374;2022-11-15T01:06:52;45.83;;;23.58;;
60076;SDS011;45950;45.208;20.374;2022-11-15T01:09:19;38.25;;;18.92;;
60076;SDS011;45950;45.208;20.374;2022-11-15T01:11:45;39.85;;;21.58;;
60076;SDS011;45950;45.208;20.374;2022-11-15T01:14:12;37.25;;;19.95;;
60076;SDS011;45950;45.208;20.374;2022-11-15T01:16:39;51.97;;;29.15;;
60076;SDS011;45950;45.208;20.374;2022-11-15T01:19:06;36.72;;;20.85;;
60076;SDS011;45950;45.208;20.374;2022-11-15T01:21:52;39.33;;;21.65;;
60076;SDS011;45950;45.208;20.374;2022-11-15T01:24:19;28.88;;;15.80;;
60076;SDS011;45950;45.208;20.374;2022-11-15T01:26:45;42.53;;;23.33;;
60076;SDS011;45950;45.208;20.374;2022-11-15T01:29:12;36.75;;;20.60;;
60076;SDS011;45950;45.208;20.374;2022-11-15T01:31:39;29.58;;;18.33;;
60076;SDS011;45950;45.208;20.374;2022-11-15T01:34:05;21.50;;;12.98;;
60076;SDS011;45950;45.208;20.374;2022-11-15T01:36:48;37.10;;;25.23;;
60076;SDS011;45950;45.208;20.374;2022-11-15T01:39:16;23.70;;;13.85;;
60076;SDS011;45950;45.208;20.374;2022-11-15T01:41:43;20.80;;;12.98;;
60076;SDS011;45950;45.208;20.374;2022-11-15T01:47:03;19.25;;;12.80;;
60076;SDS011;45950;45.208;20.374;2022-11-15T01:49:31;22.98;;;15.02;;
60076;SDS011;45950;45.208;20.374;2022-11-15T01:52:00;14.98;;;11.02;;
60076;SDS011;45950;45.208;20.374;2022-11-15T01:54:29;19.10;;;13.02;;
60076;SDS011;45950;45.208;20.374;2022-11-15T01:56:59;14.13;;;10.02;;
60076;SDS011;45950;45.208;20.374;2022-11-15T01:59:27;13.48;;;9.35;;
60076;SDS011;45950;45.208;20.374;2022-11-15T02:01:54;18.38;;;11.32;;
60076;SDS011;45950;45.208;20.374;2022-11-15T02:04:22;12.77;;;8.90;;
60076;SDS011;45950;45.208;20.374;2022-11-15T02:06:51;12.02;;;7.90;;
60076;SDS011;45950;45.208;20.374;2022-11-15T02:09:18;11.20;;;7.35;;
60076;SDS011;45950;45.208;20.374;2022-11-15T02:11:46;11.70;;;7.80;;
60076;SDS011;45950;45.208;20.374;2022-11-15T02:14:19;14.75;;;8.13;;
60076;SDS011;45950;45.208;20.374;2022-11-15T02:16:48;17.80;;;7.70;;
60076;SDS011;45950;45.208;20.374;2022-11-15T02:19:21;13.07;;;9.65;;
60076;SDS011;45950;45.208;20.374;2022-11-15T02:24:49;11.13;;;7.97;;
60076;SDS011;45950;45.208;20.374;2022-11-15T02:27:31;13.90;;;9.27;;
60076;SDS011;45950;45.208;20.374;2022-11-15T02:30:15;15.35;;;10.48;;
60076;SDS011;45950;45.208;20.374;2022-11-15T02:32:44;13.30;;;9.15;;
60076;SDS011;45950;45.208;20.374;2022-11-15T02:35:13;13.00;;;8.23;;
60076;SDS011;45950;45.208;20.374;2022-11-15T02:37:42;11.80;;;6.75;;
60076;SDS011;45950;45.208;20.374;2022-11-15T02:40:11;14.52;;;8.73;;
60076;SDS011;45950;45.208;20.374;2022-11-15T02:42:39;13.07;;;7.35;;
60076;SDS011;45950;45.208;20.374;2022-11-15T02:45:26;11.98;;;7.25;;
60076;SDS011;45950;45.208;20.374;2022-11-15T02:47:54;12.05;;;6.50;;
60076;SDS011;45950;45.208;20.374;2022-11-15T02:50:24;11.98;;;7.13;;
60076;SDS011;45950;45.208;20.374;2022-11-15T02:52:51;11.32;;;6.88;;
60076;SDS011;45950;45.208;20.374;2022-11-15T02:55:31;10.02;;;5.97;;
60076;SDS011;45950;45.208;20.374;2022-11-15T02:58:02;9.77;;;6.10;;
60076;SDS011;45950;45.208;20.374;2022-11-15T03:00:35;11.80;;;6.43;;
60076;SDS011;45950;45.208;20.374;2022-11-15T03:03:12;9.93;;;6.63;;
60076;SDS011;45950;45.208;20.374;2022-11-15T03:05:46;11.65;;;6.50;;
60076;SDS011;45950;45.208;20.374;2022-11-15T03:08:16;9.82;;;6.03;;
60076;SDS011;45950;45.208;20.374;2022-11-15T03:10:46;9.02;;;5.90;;
60076;SDS011;45950;45.208;20.374;2022-11-15T03:13:17;12.45;;;6.80;;
60076;SDS011;45950;45.208;20.374;2022-11-15T03:15:49;10.40;;;6.75;;
60076;SDS011;45950;45.208;20.374;2022-11-15T03:18:19;11.75;;;6.50;;
60076;SDS011;45950;45.208;20.374;2022-11-15T03:20:46;10.23;;;6.75;;
60076;SDS011;45950;45.208;20.374;2022-11-15T03:23:13;11.88;;;7.10;;
60076;SDS011;45950;45.208;20.374;2022-11-15T03:25:40;12.05;;;7.35;;
60076;SDS011;45950;45.208;20.374;2022-11-15T03:28:08;11.48;;;6.38;;
60076;SDS011;45950;45.208;20.374;2022-11-15T03:30:36;10.90;;;6.65;;
60076;SDS011;45950;45.208;20.374;2022-11-15T03:33:05;11.32;;;6.88;;
60076;SDS011;45950;45.208;20.374;2022-11-15T03:35:32;10.20;;;6.57;;
60076;SDS011;45950;45.208;20.374;2022-11-15T03:38:00;12.98;;;7.20;;
60076;SDS011;45950;45.208;20.374;2022-11-15T03:40:33;10.02;;;6.97;;
60076;SDS011;45950;45.208;20.374;2022-11-15T03:43:00;11.80;;;7.00;;
60076;SDS011;45950;45.208;20.374;2022-11-15T03:45:29;10.35;;;6.75;;
60076;SDS011;45950;45.208;20.374;2022-11-15T03:47:58;11.55;;;7.50;;
60076;SDS011;45950;45.208;20.374;2022-11-15T03:50:27;11.45;;;7.63;;
60076;SDS011;45950;45.208;20.374;2022-11-15T03:52:54;11.55;;;6.82;;
60076;SDS011;45950;45.208;20.374;2022-11-15T03:55:21;11.02;;;7.18;;
60076;SDS011;45950;45.208;20.374;2022-11-15T03:57:50;10.48;;;6.65;;
60076;SDS011;45950;45.208;20.374;2022-11-15T04:00:17;10.30;;;6.65;;
60076;SDS011;45950;45.208;20.374;2022-11-15T04:02:44;11.43;;;6.95;;
60076;SDS011;45950;45.208;20.374;2022-11-15T04:05:11;9.65;;;5.90;;
60076;SDS011;45950;45.208;20.374;2022-11-15T04:07:39;10.13;;;6.07;;
60076;SDS011;45950;45.208;20.374;2022-11-15T04:10:06;11.70;;;6.50;;
60076;SDS011;45950;45.208;20.374;2022-11-15T04:12:33;10.73;;;6.40;;
60076;SDS011;45950;45.208;20.374;2022-11-15T04:15:00;11.45;;;6.97;;
60076;SDS011;45950;45.208;20.374;2022-11-15T04:17:34;10.88;;;5.95;;
60076;SDS011;45950;45.208;20.374;2022-11-15T04:20:00;10.70;;;6.97;;
60076;SDS011;45950;45.208;20.374;2022-11-15T04:22:46;10.90;;;6.88;;
60076;SDS011;45950;45.208;20.374;2022-11-15T04:25:30;13.00;;;7.28;;
60076;SDS011;45950;45.208;20.374;2022-11-15T04:27:56;11.00;;;5.82;;
60076;SDS011;45950;45.208;20.374;2022-11-15T04:30:23;11.25;;;7.03;;
60076;SDS011;45950;45.208;20.374;2022-11-15T04:32:50;10.25;;;6.20;;
60076;SDS011;45950;45.208;20.374;2022-11-15T04:35:16;10.35;;;6.38;;
60076;SDS011;45950;45.208;20.374;2022-11-15T04:37:43;10.48;;;6.22;;
60076;SDS011;45950;45.208;20.374;2022-11-15T04:40:11;12.13;;;7.60;;
60076;SDS011;45950;45.208;20.374;2022-11-15T04:42:37;11.82;;;6.85;;
60076;SDS011;45950;45.208;20.374;2022-11-15T04:45:06;11.75;;;7.55;;
60076;SDS011;45950;45.208;20.374;2022-11-15T04:47:33;13.10;;;7.32;;
60076;SDS011;45950;45.208;20.374;2022-11-15T04:50:00;13.13;;;7.13;;
60076;SDS011;45950;45.208;20.374;2022-11-15T04:52:26;12.93;;;7.32;;
60076;SDS011;45950;45.208;20.374;2022-11-15T04:57:43;11.45;;;7.10;;
60076;SDS011;45950;45.208;20.374;2022-11-15T05:00:10;11.55;;;6.97;;
60076;SDS011;45950;45.208;20.374;2022-11-15T05:02:37;12.52;;;6.88;;
60076;SDS011;45950;45.208;20.374;2022-11-15T05:05:23;12.70;;;7.85;;
60076;SDS011;45950;45.208;20.374;2022-11-15T05:07:49;19.10;;;10.55;;
60076;SDS011;45950;45.208;20.374;2022-11-15T05:10:16;19.98;;;12.63;;
60076;SDS011;45950;45.208;20.374;2022-11-15T05:12:44;26.88;;;16.25;;
60076;SDS011;45950;45.208;20.374;2022-11-15T05:15:22;26.65;;;15.60;;
60076;SDS011;45950;45.208;20.374;2022-11-15T05:17:49;23.17;;;14.52;;
60076;SDS011;45950;45.208;20.374;2022-11-15T05:20:15;17.80;;;9.93;;
60076;SDS011;45950;45.208;20.374;2022-11-15T05:22:47;17.15;;;9.18;;
60076;SDS011;45950;45.208;20.374;2022-11-15T05:25:14;13.27;;;7.97;;
60076;SDS011;45950;45.208;20.374;2022-11-15T05:27:40;11.68;;;7.68;;
60076;SDS011;45950;45.208;20.374;2022-11-15T05:30:18;13.65;;;7.63;;
60076;SDS011;45950;45.208;20.374;2022-11-15T05:32:44;10.52;;;6.90;;
60076;SDS011;45950;45.208;20.374;2022-11-15T05:35:12;13.13;;;7.88;;
60076;SDS011;45950;45.208;20.374;2022-11-15T05:37:40;14.23;;;7.18;;
60076;SDS011;45950;45.208;20.374;2022-11-15T05:40:07;12.23;;;8.02;;
60076;SDS011;45950;45.208;20.374;2022-11-15T05:42:34;14.52;;;8.18;;
60076;SDS011;45950;45.208;20.374;2022-11-15T05:45:01;11.55;;;7.18;;
60076;SDS011;45950;45.208;20.374;2022-11-15T05:47:40;11.40;;;7.13;;
60076;SDS011;45950;45.208;20.374;2022-11-15T05:50:07;9.30;;;6.40;;
60076;SDS011;45950;45.208;20.374;2022-11-15T05:52:34;11.63;;;7.47;;
60076;SDS011;45950;45.208;20.374;2022-11-15T05:55:02;13.07;;;7.95;;
60076;SDS011;45950;45.208;20.374;2022-11-15T05:57:29;14.98;;;9.15;;
60076;SDS011;45950;45.208;20.374;2022-11-15T05:59:56;16.15;;;8.70;;
60076;SDS011;45950;45.208;20.374;2022-11-15T06:02:22;12.60;;;7.70;;
60076;SDS011;45950;45.208;20.374;2022-11-15T06:04:50;13.00;;;7.75;;
60076;SDS011;45950;45.208;20.374;2022-11-15T06:07:17;12.32;;;8.88;;
60076;SDS011;45950;45.208;20.374;2022-11-15T06:09:44;15.60;;;9.52;;
60076;SDS011;45950;45.208;20.374;2022-11-15T06:12:10;99.15;;;43.63;;
60076;SDS011;45950;45.208;20.374;2022-11-15T06:14:37;114.00;;;49.67;;
60076;SDS011;45950;45.208;20.374;2022-11-15T06:17:03;80.10;;;35.88;;
60076;SDS011;45950;45.208;20.374;2022-11-15T06:19:30;22.70;;;12.77;;
60076;SDS011;45950;45.208;20.374;2022-11-15T06:21:59;18.63;;;11.25;;
60076;SDS011;45950;45.208;20.374;2022-11-15T06:24:26;17.63;;;9.48;;
60076;SDS011;45950;45.208;20.374;2022-11-15T06:26:52;30.92;;;12.57;;
60076;SDS011;45950;45.208;20.374;2022-11-15T06:29:19;18.35;;;10.32;;
60076;SDS011;45950;45.208;20.374;2022-11-15T06:31:46;21.02;;;11.27;;
60076;SDS011;45950;45.208;20.374;2022-11-15T06:34:12;24.10;;;12.85;;
60076;SDS011;45950;45.208;20.374;2022-11-15T06:36:39;18.70;;;10.30;;
60076;SDS011;45950;45.208;20.374;2022-11-15T06:39:07;16.75;;;9.43;;
60076;SDS011;45950;45.208;20.374;2022-11-15T06:41:34;15.43;;;8.75;;
60076;SDS011;45950;45.208;20.374;2022-11-15T06:44:01;15.32;;;9.52;;
60076;SDS011;45950;45.208;20.374;2022-11-15T06:46:28;12.75;;;8.30;;
60076;SDS011;45950;45.208;20.374;2022-11-15T06:48:55;15.02;;;10.07;;
60076;SDS011;45950;45.208;20.374;2022-11-15T06:51:22;23.45;;;13.60;;
60076;SDS011;45950;45.208;20.374;2022-11-15T06:53:48;28.30;;;17.38;;
60076;SDS011;45950;45.208;20.374;2022-11-15T06:56:16;17.50;;;9.25;;
60076;SDS011;45950;45.208;20.374;2022-11-15T06:58:43;17.98;;;11.10;;
60076;SDS011;45950;45.208;20.374;2022-11-15T07:01:10;25.27;;;11.70;;
60076;SDS011;45950;45.208;20.374;2022-11-15T07:03:38;19.30;;;11.98;;
60076;SDS011;45950;45.208;20.374;2022-11-15T07:06:05;14.98;;;9.50;;
60076;SDS011;45950;45.208;20.374;2022-11-15T07:08:32;17.05;;;11.13;;
60076;SDS011;45950;45.208;20.374;2022-11-15T07:10:59;38.92;;;25.77;;
60076;SDS011;45950;45.208;20.374;2022-11-15T07:13:29;18.50;;;9.75;;
60076;SDS011;45950;45.208;20.374;2022-11-15T07:15:58;17.27;;;9.30;;
60076;SDS011;45950;45.208;20.374;2022-11-15T07:18:24;15.38;;;9.77;;
60076;SDS011;45950;45.208;20.374;2022-11-15T07:20:52;26.05;;;15.98;;
60076;SDS011;45950;45.208;20.374;2022-11-15T07:23:19;22.52;;;12.63;;
60076;SDS011;45950;45.208;20.374;2022-11-15T07:25:45;25.67;;;14.85;;
60076;SDS011;45950;45.208;20.374;2022-11-15T07:28:12;18.15;;;11.68;;
60076;SDS011;45950;45.208;20.374;2022-11-15T07:30:40;16.15;;;10.05;;
60076;SDS011;45950;45.208;20.374;2022-11-15T07:33:07;14.93;;;9.25;;
60076;SDS011;45950;45.208;20.374;2022-11-15T07:35:33;37.10;;;11.63;;
60076;SDS011;45950;45.208;20.374;2022-11-15T07:38:00;19.17;;;10.10;;
60076;SDS011;45950;45.208;20.374;2022-11-15T07:40:27;14.77;;;8.90;;
60076;SDS011;45950;45.208;20.374;2022-11-15T07:42:58;26.58;;;10.45;;
60076;SDS011;45950;45.208;20.374;2022-11-15T07:45:25;14.27;;;8.23;;
60076;SDS011;45950;45.208;20.374;2022-11-15T07:47:54;18.80;;;10.43;;
60076;SDS011;45950;45.208;20.374;2022-11-15T07:50:21;13.88;;;8.68;;
60076;SDS011;45950;45.208;20.374;2022-11-15T07:52:50;15.00;;;8.25;;
60076;SDS011;45950;45.208;20.374;2022-11-15T07:55:19;12.13;;;7.43;;
60076;SDS011;45950;45.208;20.374;2022-11-15T07:57:45;13.90;;;8.57;;
60076;SDS011;45950;45.208;20.374;2022-11-15T08:00:12;13.90;;;8.43;;
60076;SDS011;45950;45.208;20.374;2022-11-15T08:02:39;11.18;;;7.55;;
60076;SDS011;45950;45.208;20.374;2022-11-15T08:05:07;17.98;;;9.65;;
60076;SDS011;45950;45.208;20.374;2022-11-15T08:07:34;17.02;;;8.38;;
60076;SDS011;45950;45.208;20.374;2022-11-15T08:10:00;14.93;;;8.98;;
60076;SDS011;45950;45.208;20.374;2022-11-15T08:12:29;14.55;;;9.25;;
60076;SDS011;45950;45.208;20.374;2022-11-15T08:14:56;15.27;;;9.27;;
60076;SDS011;45950;45.208;20.374;2022-11-15T08:17:22;16.33;;;9.80;;
60076;SDS011;45950;45.208;20.374;2022-11-15T08:19:49;17.13;;;9.50;;
60076;SDS011;45950;45.208;20.374;2022-11-15T08:22:17;15.60;;;9.10;;
60076;SDS011;45950;45.208;20.374;2022-11-15T08:24:44;13.40;;;9.32;;
60076;SDS011;45950;45.208;20.374;2022-11-15T08:27:10;20.88;;;11.55;;
60076;SDS011;45950;45.208;20.374;2022-11-15T08:29:41;18.13;;;10.35;;
60076;SDS011;45950;45.208;20.374;2022-11-15T08:32:07;22.25;;;13.10;;
60076;SDS011;45950;45.208;20.374;2022-11-15T08:34:34;18.92;;;11.48;;
60076;SDS011;45950;45.208;20.374;2022-11-15T08:37:01;17.05;;;10.13;;
60076;SDS011;45950;45.208;20.374;2022-11-15T08:39:29;17.33;;;9.88;;
60076;SDS011;45950;45.208;20.374;2022-11-15T08:41:55;17.52;;;10.20;;
60076;SDS011;45950;45.208;20.374;2022-11-15T08:44:22;15.82;;;9.50;;
60076;SDS011;45950;45.208;20.374;2022-11-15T08:46:49;15.45;;;9.88;;
60076;SDS011;45950;45.208;20.374;2022-11-15T08:49:15;61.13;;;31.95;;
60076;SDS011;45950;45.208;20.374;2022-11-15T08:51:42;36.60;;;19.48;;
60076;SDS011;45950;45.208;20.374;2022-11-15T08:54:08;15.55;;;9.63;;
60076;SDS011;45950;45.208;20.374;2022-11-15T08:56:36;17.65;;;10.25;;
60076;SDS011;45950;45.208;20.374;2022-11-15T08:59:03;19.65;;;12.02;;
60076;SDS011;45950;45.208;20.374;2022-11-15T09:01:29;66.85;;;39.42;;
60076;SDS011;45950;45.208;20.374;2022-11-15T09:03:57;17.92;;;11.25;;
60076;SDS011;45950;45.208;20.374;2022-11-15T09:06:24;17.35;;;10.60;;
60076;SDS011;45950;45.208;20.374;2022-11-15T09:08:50;21.02;;;12.68;;
60076;SDS011;45950;45.208;20.374;2022-11-15T09:11:16;17.52;;;11.80;;
60076;SDS011;45950;45.208;20.374;2022-11-15T09:13:46;18.67;;;13.43;;
60076;SDS011;45950;45.208;20.374;2022-11-15T09:16:13;18.65;;;10.90;;
60076;SDS011;45950;45.208;20.374;2022-11-15T09:18:40;21.30;;;11.45;;
60076;SDS011;45950;45.208;20.374;2022-11-15T09:21:07;19.75;;;11.80;;
60076;SDS011;45950;45.208;20.374;2022-11-15T09:23:34;20.83;;;12.50;;
60076;SDS011;45950;45.208;20.374;2022-11-15T09:26:00;22.60;;;13.27;;
60076;SDS011;45950;45.208;20.374;2022-11-15T09:28:27;19.60;;;11.52;;
60076;SDS011;45950;45.208;20.374;2022-11-15T09:30:57;23.77;;;14.70;;
60076;SDS011;45950;45.208;20.374;2022-11-15T09:33:24;18.90;;;10.98;;
60076;SDS011;45950;45.208;20.374;2022-11-15T09:35:50;27.40;;;15.98;;
60076;SDS011;45950;45.208;20.374;2022-11-15T09:38:17;31.13;;;17.52;;
60076;SDS011;45950;45.208;20.374;2022-11-15T09:40:43;28.50;;;16.83;;
60076;SDS011;45950;45.208;20.374;2022-11-15T09:43:20;31.75;;;18.50;;
60076;SDS011;45950;45.208;20.374;2022-11-15T09:45:52;20.05;;;13.77;;
60076;SDS011;45950;45.208;20.374;2022-11-15T09:48:33;19.95;;;12.95;;
60076;SDS011;45950;45.208;20.374;2022-11-15T09:51:03;25.08;;;15.38;;
60076;SDS011;45950;45.208;20.374;2022-11-15T09:53:31;23.95;;;14.43;;
60076;SDS011;45950;45.208;20.374;2022-11-15T09:55:59;28.30;;;18.48;;
60076;SDS011;45950;45.208;20.374;2022-11-15T09:58:28;30.20;;;17.65;;
60076;SDS011;45950;45.208;20.374;2022-11-15T10:00:59;30.65;;;18.98;;
60076;SDS011;45950;45.208;20.374;2022-11-15T10:03:30;30.02;;;18.67;;
60076;SDS011;45950;45.208;20.374;2022-11-15T10:05:59;27.35;;;17.33;;
60076;SDS011;45950;45.208;20.374;2022-11-15T10:08:50;23.30;;;17.30;;
60076;SDS011;45950;45.208;20.374;2022-11-15T10:11:18;30.08;;;19.25;;
60076;SDS011;45950;45.208;20.374;2022-11-15T10:13:46;29.38;;;19.17;;
60076;SDS011;45950;45.208;20.374;2022-11-15T10:16:17;29.73;;;18.75;;
60076;SDS011;45950;45.208;20.374;2022-11-15T10:18:50;36.78;;;22.42;;
60076;SDS011;45950;45.208;20.374;2022-11-15T10:21:21;29.13;;;18.90;;
60076;SDS011;45950;45.208;20.374;2022-11-15T10:23:49;73.57;;;23.75;;
60076;SDS011;45950;45.208;20.374;2022-11-15T10:26:16;35.92;;;22.88;;
60076;SDS011;45950;45.208;20.374;2022-11-15T10:28:43;35.10;;;20.70;;
60076;SDS011;45950;45.208;20.374;2022-11-15T10:31:20;29.67;;;18.83;;
60076;SDS011;45950;45.208;20.374;2022-11-15T10:33:47;30.48;;;19.23;;
60076;SDS011;45950;45.208;20.374;2022-11-15T10:36:15;38.92;;;24.73;;
60076;SDS011;45950;45.208;20.374;2022-11-15T10:41:38;38.38;;;24.63;;
60076;SDS011;45950;45.208;20.374;2022-11-15T10:44:11;42.13;;;25.55;;
60076;SDS011;45950;45.208;20.374;2022-11-15T10:46:39;34.55;;;23.50;;
60076;SDS011;45950;45.208;20.374;2022-11-15T10:49:13;35.78;;;22.75;;
60076;SDS011;45950;45.208;20.374;2022-11-15T10:51:41;36.22;;;23.60;;
60076;SDS011;45950;45.208;20.374;2022-11-15T10:54:10;36.47;;;24.45;;
60076;SDS011;45950;45.208;20.374;2022-11-15T10:56:38;35.95;;;21.92;;
60076;SDS011;45950;45.208;20.374;2022-11-15T10:59:07;46.35;;;26.50;;
60076;SDS011;45950;45.208;20.374;2022-11-15T11:01:45;39.35;;;25.13;;
60076;SDS011;45950;45.208;20.374;2022-11-15T11:04:12;34.25;;;23.35;;
60076;SDS011;45950;45.208;20.374;2022-11-15T11:06:46;55.70;;;32.92;;
60076;SDS011;45950;45.208;20.374;2022-11-15T11:09:20;44.05;;;26.98;;
60076;SDS011;45950;45.208;20.374;2022-11-15T11:11:49;39.60;;;25.63;;
60076;SDS011;45950;45.208;20.374;2022-11-15T11:14:18;46.10;;;27.83;;
60076;SDS011;45950;45.208;20.374;2022-11-15T11:16:47;55.30;;;36.92;;
60076;SDS011;45950;45.208;20.374;2022-11-15T11:19:22;41.85;;;27.05;;
60076;SDS011;45950;45.208;20.374;2022-11-15T11:21:52;54.28;;;33.38;;
60076;SDS011;45950;45.208;20.374;2022-11-15T11:24:22;62.28;;;35.03;;
60076;SDS011;45950;45.208;20.374;2022-11-15T11:26:58;52.20;;;30.42;;
60076;SDS011;45950;45.208;20.374;2022-11-15T11:29:30;54.13;;;33.25;;
60076;SDS011;45950;45.208;20.374;2022-11-15T11:32:01;81.40;;;45.88;;
60076;SDS011;45950;45.208;20.374;2022-11-15T11:37:17;77.80;;;48.10;;
60076;SDS011;45950;45.208;20.374;2022-11-15T11:39:48;74.90;;;49.30;;
60076;SDS011;45950;45.208;20.374;2022-11-15T11:42:23;63.35;;;39.15;;
60076;SDS011;45950;45.208;20.374;2022-11-15T11:44:55;61.30;;;37.10;;
60076;SDS011;45950;45.208;20.374;2022-11-15T11:47:28;62.97;;;40.08;;
60076;SDS011;45950;45.208;20.374;2022-11-15T11:49:59;63.97;;;42.70;;
60076;SDS011;45950;45.208;20.374;2022-11-15T11:52:28;58.78;;;33.92;;
60076;SDS011;45950;45.208;20.374;2022-11-15T11:54:59;60.58;;;38.95;;
60076;SDS011;45950;45.208;20.374;2022-11-15T11:57:31;54.53;;;36.47;;
60076;SDS011;45950;45.208;20.374;2022-11-15T12:00:00;57.30;;;35.08;;
60076;SDS011;45950;45.208;20.374;2022-11-15T12:02:29;52.33;;;33.28;;
60076;SDS011;45950;45.208;20.374;2022-11-15T12:05:01;56.55;;;37.58;;
60076;SDS011;45950;45.208;20.374;2022-11-15T12:07:30;52.42;;;35.33;;
60076;SDS011;45950;45.208;20.374;2022-11-15T12:09:58;57.17;;;38.47;;
60076;SDS011;45950;45.208;20.374;2022-11-15T12:12:28;52.28;;;33.63;;
60076;SDS011;45950;45.208;20.374;2022-11-15T12:14:59;56.92;;;37.40;;
60076;SDS011;45950;45.208;20.374;2022-11-15T12:17:28;59.70;;;37.67;;
60076;SDS011;45950;45.208;20.374;2022-11-15T12:19:57;75.45;;;45.20;;
60076;SDS011;45950;45.208;20.374;2022-11-15T12:22:26;69.65;;;42.30;;
60076;SDS011;45950;45.208;20.374;2022-11-15T12:24:56;88.70;;;54.30;;
60076;SDS011;45950;45.208;20.374;2022-11-15T12:27:26;76.15;;;49.95;;
60076;SDS011;45950;45.208;20.374;2022-11-15T12:29:58;59.45;;;39.88;;
60076;SDS011;45950;45.208;20.374;2022-11-15T12:32:28;59.05;;;36.80;;
60076;SDS011;45950;45.208;20.374;2022-11-15T12:34:55;77.28;;;51.33;;
60076;SDS011;45950;45.208;20.374;2022-11-15T12:40:16;80.68;;;54.53;;
60076;SDS011;45950;45.208;20.374;2022-11-15T12:42:57;77.43;;;53.55;;
60076;SDS011;45950;45.208;20.374;2022-11-15T12:45:27;74.32;;;48.88;;
60076;SDS011;45950;45.208;20.374;2022-11-15T12:47:55;108.55;;;73.70;;
60076;SDS011;45950;45.208;20.374;2022-11-15T12:58:39;58.10;;;39.70;;
60076;SDS011;45950;45.208;20.374;2022-11-15T13:03:35;74.15;;;41.20;;
60076;SDS011;45950;45.208;20.374;2022-11-15T13:06:06;69.47;;;43.90;;
60076;SDS011;45950;45.208;20.374;2022-11-15T13:08:37;68.53;;;42.35;;
60076;SDS011;45950;45.208;20.374;2022-11-15T13:13:46;91.75;;;57.05;;
60076;SDS011;45950;45.208;20.374;2022-11-15T13:16:13;86.97;;;53.72;;
60076;SDS011;45950;45.208;20.374;2022-11-15T13:18:45;99.53;;;51.03;;
60076;SDS011;45950;45.208;20.374;2022-11-15T13:21:20;83.10;;;44.88;;
60076;SDS011;45950;45.208;20.374;2022-11-15T13:24:04;65.78;;;33.38;;
60076;SDS011;45950;45.208;20.374;2022-11-15T13:26:35;50.90;;;33.65;;
60076;SDS011;45950;45.208;20.374;2022-11-15T13:29:04;49.67;;;33.10;;
60076;SDS011;45950;45.208;20.374;2022-11-15T13:31:34;51.22;;;34.75;;
60076;SDS011;45950;45.208;20.374;2022-11-15T13:34:13;49.22;;;31.02;;
60076;SDS011;45950;45.208;20.374;2022-11-15T13:36:40;41.03;;;26.45;;
60076;SDS011;45950;45.208;20.374;2022-11-15T13:39:12;42.25;;;28.48;;
60076;SDS011;45950;45.208;20.374;2022-11-15T13:41:44;48.83;;;30.15;;
60076;SDS011;45950;45.208;20.374;2022-11-15T13:44:18;42.85;;;28.00;;
60076;SDS011;45950;45.208;20.374;2022-11-15T13:46:45;50.95;;;30.83;;
60076;SDS011;45950;45.208;20.374;2022-11-15T13:49:13;46.17;;;27.75;;
60076;SDS011;45950;45.208;20.374;2022-11-15T13:51:41;45.38;;;29.65;;
60076;SDS011;45950;45.208;20.374;2022-11-15T13:54:13;41.28;;;25.65;;
60076;SDS011;45950;45.208;20.374;2022-11-15T13:56:40;31.67;;;19.55;;
60076;SDS011;45950;45.208;20.374;2022-11-15T13:59:09;32.38;;;20.25;;
60076;SDS011;45950;45.208;20.374;2022-11-15T14:01:36;31.17;;;21.67;;
60076;SDS011;45950;45.208;20.374;2022-11-15T14:04:03;26.83;;;17.98;;
60076;SDS011;45950;45.208;20.374;2022-11-15T14:06:31;32.65;;;21.65;;
60076;SDS011;45950;45.208;20.374;2022-11-15T14:09:03;39.38;;;26.13;;
60076;SDS011;45950;45.208;20.374;2022-11-15T14:11:30;38.75;;;24.25;;
60076;SDS011;45950;45.208;20.374;2022-11-15T14:14:03;33.88;;;21.10;;
60076;SDS011;45950;45.208;20.374;2022-11-15T14:16:34;30.48;;;20.80;;
60076;SDS011;45950;45.208;20.374;2022-11-15T14:19:02;30.77;;;20.00;;
60076;SDS011;45950;45.208;20.374;2022-11-15T14:21:28;33.47;;;23.05;;
60076;SDS011;45950;45.208;20.374;2022-11-15T14:26:38;27.05;;;18.23;;
60076;SDS011;45950;45.208;20.374;2022-11-15T14:31:46;37.35;;;25.40;;
60076;SDS011;45950;45.208;20.374;2022-11-15T14:34:12;32.83;;;22.55;;
60076;SDS011;45950;45.208;20.374;2022-11-15T14:36:39;34.75;;;24.55;;
60076;SDS011;45950;45.208;20.374;2022-11-15T14:39:06;33.25;;;22.90;;
60076;SDS011;45950;45.208;20.374;2022-11-15T14:41:34;32.25;;;21.77;;
60076;SDS011;45950;45.208;20.374;2022-11-15T14:44:05;30.83;;;21.67;;
60076;SDS011;45950;45.208;20.374;2022-11-15T14:46:32;31.15;;;21.02;;
60076;SDS011;45950;45.208;20.374;2022-11-15T14:48:59;33.53;;;22.45;;
60076;SDS011;45950;45.208;20.374;2022-11-15T14:51:25;57.00;;;37.55;;
60076;SDS011;45950;45.208;20.374;2022-11-15T14:53:52;70.32;;;50.90;;
60076;SDS011;45950;45.208;20.374;2022-11-15T14:56:20;81.90;;;58.45;;
60076;SDS011;45950;45.208;20.374;2022-11-15T14:58:46;68.82;;;51.10;;
60076;SDS011;45950;45.208;20.374;2022-11-15T15:01:16;78.25;;;57.25;;
60076;SDS011;45950;45.208;20.374;2022-11-15T15:03:43;76.82;;;57.38;;